createdAt,value
2022-10-21T00:01:12.244Z,100356.94
2022-10-21T00:03:40.973Z,100356.09
2022-10-21T00:06:10.462Z,100333.25
2022-10-21T00:08:40.246Z,100321.00
2022-10-21T00:11:10.581Z,100327.22
2022-10-21T00:13:40.748Z,100345.81
2022-10-21T00:16:12.171Z,100352.94
2022-10-21T00:18:43.260Z,100365.34
2022-10-21T00:21:15.393Z,100368.97
2022-10-21T00:23:44.327Z,100361.19
2022-10-21T00:26:13.768Z,100363.91
2022-10-21T00:28:43.873Z,100370.88
2022-10-21T00:31:14.769Z,100372.59
2022-10-21T00:33:43.619Z,100363.63
2022-10-21T00:36:15.149Z,100366.28
2022-10-21T00:38:46.168Z,100363.78
2022-10-21T00:41:16.575Z,100394.59
2022-10-21T00:43:58.376Z,100375.03
2022-10-21T00:46:36.603Z,100358.66
2022-10-21T00:49:13.227Z,100341.44
2022-10-21T00:51:42.191Z,100349.88
2022-10-21T00:54:11.528Z,100338.19
2022-10-21T00:56:42.743Z,100329.13
2022-10-21T00:59:12.987Z,100317.63
2022-10-21T01:01:41.630Z,100321.91
2022-10-21T01:04:10.419Z,100334.16
2022-10-21T01:06:40.574Z,100331.47
2022-10-21T01:09:09.530Z,100303.31
2022-10-21T01:11:43.333Z,100249.75
2022-10-21T01:14:47.108Z,100257.81
2022-10-21T01:17:44.030Z,100290.50
2022-10-21T01:20:59.168Z,100298.63
2022-10-21T01:24:37.280Z,100304.91
2022-10-21T01:27:39.419Z,100294.50
2022-10-21T01:30:42.932Z,100279.66
2022-10-21T01:33:39.855Z,100279.66
2022-10-21T01:36:22.940Z,100277.94
2022-10-21T01:39:06.529Z,100293.78
2022-10-21T01:41:42.541Z,100293.78
2022-10-21T01:44:22.076Z,100270.97
2022-10-21T01:46:58.793Z,100265.75
2022-10-21T01:49:33.207Z,100261.31
2022-10-21T01:52:03.387Z,100271.13
2022-10-21T01:54:36.280Z,100271.25
2022-10-21T01:57:07.493Z,100258.09
2022-10-21T01:59:37.413Z,100266.09
2022-10-21T02:02:09.956Z,100267.94
2022-10-21T02:04:42.377Z,100268.00
2022-10-21T02:07:11.442Z,100258.38
2022-10-21T02:09:39.952Z,100254.09
2022-10-21T02:12:10.471Z,100257.66
2022-10-21T02:14:43.443Z,100266.53
2022-10-21T02:17:17.332Z,100256.03
2022-10-21T02:19:46.652Z,100238.56
2022-10-21T02:22:21.379Z,100242.13
2022-10-21T02:24:54.752Z,100226.28
2022-10-21T02:27:24.180Z,100221.97
2022-10-21T02:29:58.716Z,100219.31
2022-10-21T02:32:37.912Z,100218.56
2022-10-21T02:35:23.077Z,100222.16
2022-10-21T02:38:00.855Z,100223.00
2022-10-21T02:40:35.403Z,100216.03
2022-10-21T02:43:10.313Z,100219.56
2022-10-21T02:45:40.529Z,100217.81
2022-10-21T02:48:10.129Z,100218.66
2022-10-21T02:50:38.389Z,100219.56
2022-10-21T02:53:07.612Z,100216.19
2022-10-21T02:55:36.093Z,100214.38
2022-10-21T02:58:04.792Z,100203.88
2022-10-21T03:00:33.472Z,100190.69
2022-10-21T03:03:02.068Z,100186.38
2022-10-21T03:08:00.089Z,100171.53
2022-10-21T03:10:28.665Z,100173.31
2022-10-21T03:12:56.864Z,100169.88
2022-10-21T03:15:25.470Z,100165.56
2022-10-21T03:17:53.956Z,100170.13
2022-10-21T03:20:22.632Z,100185.16
2022-10-21T03:22:53.113Z,100182.59
2022-10-21T03:25:21.651Z,100180.97
2022-10-21T03:27:51.276Z,100172.25
2022-10-21T03:30:20.028Z,100174.97
2022-10-21T03:32:48.503Z,100174.97
2022-10-21T03:35:17.115Z,100181.94
2022-10-21T03:37:45.660Z,100183.66
2022-10-21T03:40:15.496Z,100176.53
2022-10-21T03:42:44.003Z,100179.97
2022-10-21T03:45:12.768Z,100169.28
2022-10-21T03:47:41.261Z,100176.25
2022-10-21T03:50:13.960Z,100173.47
2022-10-21T03:52:45.067Z,100176.09
2022-10-21T03:55:14.857Z,100168.97
2022-10-21T03:57:43.651Z,100172.38
2022-10-21T04:00:14.404Z,100173.16
2022-10-21T04:02:43.417Z,100166.09
2022-10-21T04:05:12.291Z,100160.78
2022-10-21T04:07:41.187Z,100158.13
2022-10-21T04:10:11.605Z,100156.41
2022-10-21T04:12:41.480Z,100153.78
2022-10-21T04:15:13.637Z,100152.06
2022-10-21T04:17:42.564Z,100143.31
2022-10-21T04:20:12.201Z,100142.47
2022-10-21T04:22:41.168Z,100142.47
2022-10-21T04:25:10.467Z,100146.00
2022-10-21T04:27:40.378Z,100143.44
2022-10-21T04:30:10.404Z,100146.16
2022-10-21T04:32:39.191Z,100144.44
2022-10-21T04:35:08.175Z,100140.13
2022-10-21T04:37:40.001Z,100146.28
2022-10-21T04:40:10.477Z,100143.75
2022-10-21T04:42:40.354Z,100147.22
2022-10-21T04:45:10.111Z,100138.53
2022-10-21T04:47:38.879Z,100130.72
2022-10-21T04:50:08.034Z,100127.22
2022-10-21T04:52:36.592Z,100122.09
2022-10-21T04:55:06.801Z,100118.66
2022-10-21T04:57:35.141Z,100113.53
2022-10-21T05:00:06.732Z,100117.09
2022-10-21T05:02:36.615Z,100118.88
2022-10-21T05:05:05.850Z,100113.69
2022-10-21T05:07:34.375Z,100104.97
2022-10-21T05:10:02.589Z,100106.72
2022-10-21T05:12:31.229Z,100106.84
2022-10-21T05:15:00.518Z,100095.50
2022-10-21T05:17:30.142Z,100096.44
2022-10-21T05:19:58.629Z,100105.34
2022-10-21T05:22:27.155Z,100103.63
2022-10-21T05:24:55.364Z,100101.84
2022-10-21T05:27:23.574Z,100090.44
2022-10-21T05:29:52.102Z,100094.81
2022-10-21T05:32:20.612Z,100103.44
2022-10-21T05:34:50.232Z,100105.13
2022-10-21T05:37:19.022Z,100100.69
2022-10-21T05:39:47.372Z,100102.34
2022-10-21T05:42:15.687Z,100100.56
2022-10-21T05:44:44.173Z,100101.44
2022-10-21T05:47:12.711Z,100103.13
2022-10-21T05:49:41.209Z,100099.56
2022-10-21T05:52:10.787Z,100106.56
2022-10-21T05:54:39.034Z,100110.91
2022-10-21T05:57:07.536Z,100102.84
2022-10-21T05:59:35.735Z,100111.53
2022-10-21T06:02:04.230Z,100111.41
2022-10-21T06:04:37.792Z,100109.50
2022-10-21T06:07:07.696Z,100099.75
2022-10-21T06:09:37.688Z,100090.00
2022-10-21T06:12:07.447Z,100090.75
2022-10-21T06:14:36.582Z,100086.28
2022-10-21T06:17:05.632Z,100091.41
2022-10-21T06:19:34.076Z,100094.81
2022-10-21T06:22:02.792Z,100092.94
2022-10-21T06:24:31.327Z,100095.53
2022-10-21T06:27:00.940Z,100096.38
2022-10-21T06:29:29.571Z,100100.66
2022-10-21T06:31:58.059Z,100102.34
2022-10-21T06:34:26.676Z,100104.94
2022-10-21T06:36:55.177Z,100114.53
2022-10-21T06:39:23.672Z,100111.00
2022-10-21T06:41:52.201Z,100114.47
2022-10-21T06:44:41.717Z,100121.56
2022-10-21T06:47:10.246Z,100133.00
2022-10-21T06:49:38.720Z,100135.66
2022-10-21T06:52:07.284Z,100145.28
2022-10-21T06:54:35.820Z,100149.69
2022-10-21T06:57:05.314Z,100152.41
2022-10-21T06:59:33.916Z,100162.03
2022-10-21T07:02:03.480Z,100171.81
2022-10-21T07:04:31.995Z,100178.16
2022-10-21T07:07:00.911Z,100183.56
2022-10-21T07:09:30.812Z,100182.78
2022-10-21T07:12:01.314Z,100177.59
2022-10-21T07:14:29.934Z,100175.81
2022-10-21T07:16:58.464Z,100168.69
2022-10-21T07:19:28.513Z,100166.81
2022-10-21T07:21:56.713Z,100167.53
2022-10-21T07:24:25.309Z,100168.25
2022-10-21T07:26:53.908Z,100169.88
2022-10-21T07:29:22.489Z,100174.06
2022-10-21T07:31:51.073Z,100167.81
2022-10-21T07:34:19.543Z,100172.94
2022-10-21T07:36:52.730Z,100164.88
2022-10-21T07:39:25.472Z,100170.03
2022-10-21T07:41:56.549Z,100169.88
2022-10-21T07:44:26.762Z,100149.56
2022-10-21T07:46:55.611Z,100153.84
2022-10-21T07:49:24.962Z,100150.94
2022-10-21T07:51:54.519Z,100155.13
2022-10-21T07:54:23.600Z,100156.78
2022-10-21T07:56:53.093Z,100159.19
2022-10-21T07:59:23.474Z,100151.13
2022-10-21T08:01:53.104Z,100144.84
2022-10-21T08:04:24.894Z,100151.75
2022-10-21T08:06:54.532Z,100156.00
2022-10-21T08:09:23.483Z,100162.16
2022-10-21T08:11:52.258Z,100165.56
2022-10-21T08:14:20.772Z,100165.41
2022-10-21T08:16:53.750Z,100154.69
2022-10-21T08:19:29.417Z,100162.44
2022-10-21T08:22:00.811Z,100171.94
2022-10-21T08:24:29.442Z,100169.16
2022-10-21T08:26:58.008Z,100162.94
2022-10-21T08:29:26.932Z,100166.34
2022-10-21T08:31:55.408Z,100168.06
2022-10-21T08:34:24.575Z,100159.22
2022-10-21T08:36:52.765Z,100141.56
2022-10-21T08:39:24.909Z,100116.78
2022-10-21T08:42:18.434Z,100107.91
2022-10-21T08:44:54.965Z,100157.00
2022-10-21T08:47:33.159Z,100186.84
2022-10-21T08:50:06.433Z,100182.44
2022-10-21T08:52:44.628Z,100171.00
2022-10-21T08:55:24.053Z,100173.56
2022-10-21T08:57:54.642Z,100181.41
2022-10-21T09:00:25.914Z,100186.53
2022-10-21T09:03:09.007Z,100195.25
2022-10-21T09:06:14.982Z,100188.09
2022-10-21T09:08:56.566Z,100186.38
2022-10-21T09:11:44.070Z,100181.09
2022-10-21T09:14:58.714Z,100171.31
2022-10-21T09:17:57.445Z,100173.78
2022-10-21T09:20:45.773Z,100181.63
2022-10-21T09:23:44.737Z,100179.84
2022-10-21T09:26:34.504Z,100174.50
2022-10-21T09:29:16.687Z,100177.03
2022-10-21T09:31:47.791Z,100177.91
2022-10-21T09:34:23.716Z,100184.22
2022-10-21T09:36:54.717Z,100178.06
2022-10-21T09:39:33.705Z,100193.84
2022-10-21T09:42:07.349Z,100200.75
2022-10-21T09:44:47.128Z,100210.47
2022-10-21T09:47:21.795Z,100215.75
2022-10-21T09:50:06.909Z,100202.63
2022-10-21T09:52:38.905Z,100207.06
2022-10-21T09:55:14.468Z,100214.97
2022-10-21T09:57:52.523Z,100208.75
2022-10-21T10:00:21.123Z,100211.31
2022-10-21T10:02:50.326Z,100220.91
2022-10-21T10:05:42.167Z,100215.59
2022-10-21T10:08:40.142Z,100231.31
2022-10-21T10:11:18.835Z,100226.72
2022-10-21T10:13:50.937Z,100231.00
2022-10-21T10:16:27.545Z,100235.31
2022-10-21T10:19:17.510Z,100231.78
2022-10-21T10:21:48.180Z,100232.53
2022-10-21T10:24:20.109Z,100228.97
2022-10-21T10:26:49.788Z,100235.00
2022-10-21T10:29:27.725Z,100235.78
2022-10-21T10:31:59.430Z,100240.06
2022-10-21T10:34:34.561Z,100245.25
2022-10-21T10:37:09.072Z,100252.22
2022-10-21T10:39:40.840Z,100245.84
2022-10-21T10:42:09.500Z,100245.69
2022-10-21T10:44:44.524Z,100254.47
2022-10-21T10:47:21.800Z,100243.72
2022-10-21T10:49:51.639Z,100246.22
2022-10-21T10:52:24.169Z,100231.09
2022-10-21T10:55:19.352Z,100226.59
2022-10-21T10:58:06.090Z,100225.50
2022-10-21T11:00:45.840Z,100220.06
2022-10-21T11:03:26.074Z,100228.56
2022-10-21T11:06:02.348Z,100223.13
2022-10-21T11:08:37.223Z,100222.88
2022-10-21T11:11:11.827Z,100207.53
2022-10-21T11:13:42.305Z,100212.41
2022-10-21T11:16:59.013Z,100212.75
2022-10-21T11:19:40.558Z,100202.31
2022-10-21T11:22:16.340Z,100188.66
2022-10-21T11:25:12.409Z,100183.09
2022-10-21T11:28:04.106Z,100205.72
2022-10-21T11:30:47.827Z,100176.94
2022-10-21T11:33:29.108Z,100205.59
2022-10-21T11:36:08.010Z,100206.41
2022-10-21T11:39:31.734Z,100220.16
2022-10-21T11:42:10.040Z,100217.00
2022-10-21T11:44:53.916Z,100210.50
2022-10-21T11:47:29.600Z,100219.13
2022-10-21T11:50:13.004Z,100223.22
2022-10-21T11:52:57.688Z,100221.50
2022-10-21T11:55:39.769Z,100224.81
2022-10-21T11:58:33.744Z,100215.25
2022-10-21T12:01:25.412Z,100223.78
2022-10-21T12:04:22.459Z,100219.88
2022-10-21T12:07:11.018Z,100225.50
2022-10-21T12:09:46.324Z,100215.81
2022-10-21T12:12:18.668Z,100210.84
2022-10-21T12:14:53.767Z,100208.25
2022-10-21T12:17:23.855Z,100216.84
2022-10-21T12:19:59.068Z,100213.41
2022-10-21T12:22:33.069Z,100214.66
2022-10-21T12:25:20.829Z,100198.28
2022-10-21T12:27:55.930Z,100197.66
2022-10-21T12:30:33.783Z,100195.03
2022-10-21T12:33:16.890Z,100195.34
2022-10-21T12:35:53.175Z,100193.31
2022-10-21T12:38:43.785Z,100216.53
2022-10-21T12:41:34.218Z,100205.81
2022-10-21T12:44:24.864Z,100195.19
2022-10-21T12:46:56.778Z,100203.88
2022-10-21T12:49:36.419Z,100189.38
2022-10-21T12:52:13.862Z,100204.22
2022-10-21T12:54:56.880Z,100198.53
2022-10-21T12:57:29.689Z,100197.13
2022-10-21T13:00:51.054Z,100208.69
2022-10-21T13:03:22.820Z,100198.94
2022-10-21T13:06:07.039Z,100196.63
2022-10-21T13:08:51.653Z,100195.09
2022-10-21T13:11:40.470Z,100184.59
2022-10-21T13:14:35.345Z,100188.03
2022-10-21T13:17:48.932Z,100200.94
2022-10-21T13:20:47.033Z,100201.34
2022-10-21T13:23:37.863Z,100189.59
2022-10-21T13:26:19.979Z,100178.56
2022-10-21T13:29:16.550Z,100177.97
2022-10-21T13:31:45.372Z,100187.59
2022-10-21T13:34:29.417Z,100190.88
2022-10-21T13:36:58.657Z,100185.38
2022-10-21T13:39:34.501Z,100199.31
2022-10-21T13:42:06.529Z,100202.28
2022-10-21T13:44:39.744Z,100204.09
2022-10-21T13:47:30.627Z,100204.03
2022-10-21T13:50:11.661Z,100200.63
2022-10-21T13:52:43.238Z,100202.53
2022-10-21T13:55:20.605Z,100204.22
2022-10-21T13:57:51.357Z,100202.06
2022-10-21T14:00:25.173Z,100195.47
2022-10-21T14:03:00.631Z,100195.00
2022-10-21T14:05:37.793Z,100197.13
2022-10-21T14:08:18.274Z,100178.41
2022-10-21T14:10:48.443Z,100179.94
2022-10-21T14:13:20.583Z,100178.00
2022-10-21T14:15:50.811Z,100174.41
2022-10-21T14:18:34.925Z,100167.38
2022-10-21T14:21:07.423Z,100174.41
2022-10-21T14:23:36.425Z,100169.28
2022-10-21T14:26:09.705Z,100171.19
2022-10-21T14:28:38.937Z,100175.53
2022-10-21T14:31:12.411Z,100169.50
2022-10-21T14:33:43.345Z,100171.19
2022-10-21T14:36:20.325Z,100177.47
2022-10-21T14:39:00.402Z,100178.59
2022-10-21T14:41:35.504Z,100182.41
2022-10-21T14:44:14.486Z,100183.66
2022-10-21T14:46:47.275Z,100181.28
2022-10-21T14:49:26.489Z,100168.41
2022-10-21T14:52:01.106Z,100158.94
2022-10-21T14:54:41.764Z,100168.81
2022-10-21T14:57:33.199Z,100164.66
2022-10-21T15:00:03.370Z,100163.91
2022-10-21T15:02:37.156Z,100159.75
2022-10-21T15:05:26.656Z,100158.25
2022-10-21T15:08:17.014Z,100139.31
2022-10-21T15:10:45.450Z,100141.19
2022-10-21T15:13:18.280Z,100146.69
2022-10-21T15:15:53.223Z,100146.13
2022-10-21T15:18:29.245Z,100138.38
2022-10-21T15:21:00.204Z,100132.53
2022-10-21T15:23:32.967Z,100164.66
2022-10-21T15:26:06.003Z,100145.44
2022-10-21T15:28:36.499Z,100142.13
2022-10-21T15:31:09.241Z,100148.66
2022-10-21T15:33:38.864Z,100148.22
2022-10-21T15:36:09.819Z,100160.69
2022-10-21T15:38:44.501Z,100159.16
2022-10-21T15:41:16.218Z,100162.09
2022-10-21T15:43:58.267Z,100155.28
2022-10-21T15:46:27.173Z,100159.91
2022-10-21T15:48:57.985Z,100153.00
2022-10-21T15:51:26.384Z,100168.16
2022-10-21T15:53:54.582Z,100147.97
2022-10-21T15:56:24.277Z,100143.72
2022-10-21T15:58:52.460Z,100157.28
2022-10-21T16:01:21.141Z,100144.19
2022-10-21T16:03:49.435Z,100147.88
2022-10-21T16:06:21.715Z,100138.22
2022-10-21T16:08:51.667Z,100140.31
2022-10-21T16:11:34.642Z,100155.44
2022-10-21T16:14:10.198Z,100145.22
2022-10-21T16:16:41.723Z,100146.38
2022-10-21T16:19:10.901Z,100154.50
2022-10-21T16:21:41.085Z,100160.84
2022-10-21T16:24:09.559Z,100149.56
2022-10-21T16:26:42.413Z,100140.00
2022-10-21T16:29:13.848Z,100136.50
2022-10-21T16:31:42.084Z,100138.47
2022-10-21T16:34:10.299Z,100146.50
2022-10-21T16:36:40.243Z,100147.53
2022-10-21T16:39:14.786Z,100162.78
2022-10-21T16:41:43.156Z,100161.22
2022-10-21T16:44:11.724Z,100165.03
2022-10-21T16:46:42.682Z,100161.59
2022-10-21T16:49:15.320Z,100167.06
2022-10-21T16:51:46.876Z,100177.84
2022-10-21T16:54:15.744Z,100188.63
2022-10-21T16:56:44.284Z,100192.41
2022-10-21T16:59:12.868Z,100198.72
2022-10-21T17:01:41.588Z,100197.88
2022-10-21T17:04:14.210Z,100203.31
2022-10-21T17:06:44.263Z,100206.06
2022-10-21T17:09:12.490Z,100201.78
2022-10-21T17:11:42.499Z,100199.22
2022-10-21T17:14:16.102Z,100201.09
2022-10-21T17:16:45.239Z,100197.78
2022-10-21T17:19:13.943Z,100195.25
2022-10-21T17:21:44.055Z,100195.31
2022-10-21T17:24:17.595Z,100204.38
2022-10-21T17:26:46.361Z,100216.66
2022-10-21T17:29:15.536Z,100222.13
2022-10-21T17:31:44.713Z,100217.97
2022-10-21T17:34:26.840Z,100219.06
2022-10-21T17:36:57.035Z,100214.78
2022-10-21T17:39:25.727Z,100227.16
2022-10-21T17:41:54.018Z,100230.75
2022-10-21T17:44:22.860Z,100220.34
2022-10-21T17:46:54.350Z,100232.72
2022-10-21T17:49:23.255Z,100233.75
2022-10-21T17:51:52.109Z,100240.91
2022-10-21T17:54:26.100Z,100226.91
2022-10-21T17:56:57.820Z,100235.00
2022-10-21T17:59:26.704Z,100234.25
2022-10-21T18:01:54.931Z,100236.06
2022-10-21T18:04:23.157Z,100230.84
2022-10-21T18:06:51.351Z,100238.78
2022-10-21T18:09:20.984Z,100223.84
2022-10-21T18:11:49.665Z,100222.13
2022-10-21T18:14:18.196Z,100218.72
2022-10-21T18:16:46.781Z,100233.03
2022-10-21T18:19:15.324Z,100230.56
2022-10-21T18:21:43.924Z,100240.41
2022-10-21T18:24:12.799Z,100221.09
2022-10-21T18:26:42.594Z,100221.25
2022-10-21T18:29:10.808Z,100217.81
2022-10-21T18:31:39.975Z,100218.00
2022-10-21T18:34:09.331Z,100215.44
2022-10-21T18:36:37.984Z,100223.44
2022-10-21T18:39:06.940Z,100213.88
2022-10-21T18:41:36.160Z,100219.34
2022-10-21T18:44:08.950Z,100213.38
2022-10-21T18:46:39.884Z,100210.88
2022-10-21T18:49:11.716Z,100214.53
2022-10-21T18:51:40.240Z,100204.97
2022-10-21T18:54:08.768Z,100212.16
2022-10-21T18:56:37.038Z,100216.59
2022-10-21T18:59:07.018Z,100226.31
2022-10-21T19:01:35.335Z,100227.19
2022-10-21T19:04:03.917Z,100213.88
2022-10-21T19:06:39.621Z,100220.00
2022-10-21T19:09:12.954Z,100222.56
2022-10-21T19:11:42.293Z,100233.16
2022-10-21T19:14:14.351Z,100234.16
2022-10-21T19:16:43.696Z,100249.19
2022-10-21T19:19:13.037Z,100248.41
2022-10-21T19:21:41.968Z,100247.56
2022-10-21T19:24:11.646Z,100243.22
2022-10-21T19:26:42.155Z,100240.47
2022-10-21T19:29:16.168Z,100238.59
2022-10-21T19:34:20.992Z,100245.44
2022-10-21T19:36:49.376Z,100235.81
2022-10-21T19:39:17.973Z,100231.25
2022-10-21T19:41:46.340Z,100234.69
2022-10-21T19:44:16.053Z,100227.53
2022-10-21T19:46:44.620Z,100226.53
2022-10-21T19:49:15.328Z,100229.84
2022-10-21T19:51:43.896Z,100242.13
2022-10-21T19:54:13.882Z,100242.13
2022-10-21T19:56:42.615Z,100245.72
2022-10-21T19:59:11.847Z,100248.38
2022-10-21T20:01:41.548Z,100241.38
2022-10-21T20:04:09.930Z,100245.97
2022-10-21T20:06:39.388Z,100251.34
2022-10-21T20:09:10.485Z,100233.06
2022-10-21T20:11:40.444Z,100232.47
2022-10-21T20:14:09.213Z,100238.94
2022-10-21T20:16:42.315Z,100241.78
2022-10-21T20:19:13.314Z,100234.09
2022-10-21T20:21:42.935Z,100232.53
2022-10-21T20:24:14.220Z,100233.63
2022-10-21T20:26:44.391Z,100231.16
2022-10-21T20:29:13.218Z,100241.88
2022-10-21T20:31:42.781Z,100242.78
2022-10-21T20:34:13.583Z,100245.59
2022-10-21T20:36:42.148Z,100252.75
2022-10-21T20:39:11.316Z,100273.13
2022-10-21T20:41:40.174Z,100269.69
2022-10-21T20:44:12.225Z,100277.63
2022-10-21T20:46:42.172Z,100285.56
2022-10-21T20:49:11.236Z,100286.50
2022-10-21T20:51:43.064Z,100290.94
2022-10-21T20:54:15.072Z,100273.38
2022-10-21T20:56:44.484Z,100283.94
2022-10-21T20:59:15.839Z,100283.06
2022-10-21T21:01:47.652Z,100279.50
2022-10-21T21:04:20.554Z,100272.50
2022-10-21T21:06:50.763Z,100266.28
2022-10-21T21:09:43.701Z,100254.00
2022-10-21T21:12:10.110Z,100247.00
2022-10-21T21:14:38.608Z,100237.44
2022-10-21T21:17:08.288Z,100235.81
2022-10-21T21:19:36.551Z,100237.69
2022-10-21T21:22:05.076Z,100241.25
2022-10-21T21:24:33.546Z,100259.84
2022-10-21T21:27:02.056Z,100267.66
2022-10-21T21:29:30.550Z,100256.34
2022-10-21T21:31:59.307Z,100265.97
2022-10-21T21:34:29.103Z,100267.66
2022-10-21T21:36:57.614Z,100258.84
2022-10-21T21:39:26.226Z,100256.19
2022-10-21T21:41:54.979Z,100269.25
2022-10-21T21:44:23.444Z,100267.34
2022-10-21T21:46:51.916Z,100272.66
2022-10-21T21:49:20.435Z,100273.53
2022-10-21T21:51:49.956Z,100278.66
2022-10-21T21:54:18.350Z,100282.16
2022-10-21T21:56:46.942Z,100282.91
2022-10-21T21:59:15.487Z,100287.19
2022-10-21T22:01:44.120Z,100279.19
2022-10-21T22:04:12.658Z,100279.03
2022-10-21T22:06:40.928Z,100277.16
2022-10-21T22:09:11.956Z,100273.59
2022-10-21T22:11:40.508Z,100261.13
2022-10-21T22:14:09.054Z,100252.28
2022-10-21T22:16:37.912Z,100255.72
2022-10-21T22:19:06.486Z,100251.28
2022-10-21T22:21:34.815Z,100260.06
2022-10-21T22:24:03.338Z,100268.00
2022-10-21T22:26:32.964Z,100252.13
2022-10-21T22:29:01.466Z,100253.84
2022-10-21T22:31:30.827Z,100251.97
2022-10-21T22:34:01.252Z,100251.97
2022-10-21T22:36:30.009Z,100254.53
2022-10-21T22:38:58.880Z,100252.81
2022-10-21T22:41:27.847Z,100253.69
2022-10-21T22:43:57.395Z,100251.97
2022-10-21T22:46:40.947Z,100259.97
2022-10-21T22:49:10.655Z,100254.78
2022-10-21T22:51:39.215Z,100252.13
2022-10-21T22:54:19.256Z,100260.84
2022-10-21T22:56:52.832Z,100252.13
2022-10-21T22:59:22.569Z,100259.97
2022-10-21T23:01:50.809Z,100244.09
2022-10-21T23:04:19.050Z,100247.69
2022-10-21T23:06:47.313Z,100256.47
2022-10-21T23:09:15.868Z,100241.56
2022-10-21T23:11:44.238Z,100238.91
2022-10-21T23:14:12.732Z,100231.94
2022-10-21T23:16:42.367Z,100228.50
2022-10-21T23:21:42.288Z,100248.88
2022-10-21T23:24:11.096Z,100252.44
2022-10-21T23:26:39.365Z,100261.28
2022-10-21T23:29:07.927Z,100277.16
2022-10-21T23:31:36.210Z,100282.44
2022-10-21T23:34:06.096Z,100288.59
2022-10-21T23:36:35.441Z,100289.47
2022-10-21T23:39:04.511Z,100293.91
2022-10-21T23:41:32.723Z,100314.00
2022-10-21T23:44:01.404Z,100306.06
2022-10-21T23:46:30.043Z,100294.59
2022-10-21T23:48:58.551Z,100296.28
2022-10-21T23:51:28.187Z,100300.66
2022-10-21T23:53:56.891Z,100289.16
2022-10-21T23:56:25.085Z,100286.41
2022-10-21T23:58:53.559Z,100282.00
